createdAt,value
2019-03-25T00:02:29.623Z,93671.03
2019-03-25T00:04:59.389Z,93621.90
2019-03-25T00:07:29.153Z,93594.91
2019-03-25T00:09:59.090Z,93518.95
2019-03-25T00:12:29.219Z,93508.50
2019-03-25T00:14:59.049Z,93442.33
2019-03-25T00:17:28.843Z,93403.15
2019-03-25T00:19:58.659Z,93334.21
2019-03-25T00:22:28.328Z,93278.91
2019-03-25T00:24:58.099Z,93268.84
2019-03-25T00:27:27.908Z,93250.39
2019-03-25T00:29:57.692Z,93208.80
2019-03-25T00:32:29.815Z,93211.47
2019-03-25T00:34:59.571Z,93182.03
2019-03-25T00:37:29.324Z,93170.63
2019-03-25T00:39:59.114Z,93152.00
2019-03-25T00:42:31.278Z,93130.81
2019-03-25T00:45:01.093Z,93091.95
2019-03-25T00:47:32.839Z,93017.83
2019-03-25T00:50:02.616Z,92938.02
2019-03-25T00:52:32.413Z,92952.41
2019-03-25T00:55:02.215Z,92945.05
2019-03-25T00:57:31.976Z,92922.88
2019-03-25T01:00:01.767Z,92919.20
2019-03-25T01:02:31.577Z,92948.55
2019-03-25T01:05:01.349Z,92913.02
2019-03-25T01:07:31.133Z,92886.64
2019-03-25T01:10:00.959Z,92885.48
2019-03-25T01:12:30.691Z,92960.55
2019-03-25T01:15:00.487Z,92958.34
2019-03-25T01:17:31.529Z,92975.75
2019-03-25T01:20:01.365Z,92999.69
2019-03-25T01:22:31.503Z,93008.92
2019-03-25T01:25:02.583Z,92996.98
2019-03-25T01:27:33.557Z,92984.02
2019-03-25T01:30:05.789Z,92991.56
2019-03-25T01:32:35.588Z,93038.25
2019-03-25T01:35:06.500Z,93020.62
2019-03-25T01:37:36.303Z,92986.35
2019-03-25T01:40:07.524Z,92768.25
2019-03-25T01:42:37.578Z,92788.80
2019-03-25T01:45:07.398Z,92884.75
2019-03-25T01:47:37.209Z,92822.38
2019-03-25T01:50:07.436Z,92755.86
2019-03-25T01:52:37.258Z,92771.45
2019-03-25T01:55:13.275Z,92772.55
2019-03-25T01:57:38.713Z,92787.38
2019-03-25T02:00:08.696Z,92838.57
2019-03-25T02:02:38.511Z,92879.30
2019-03-25T02:05:08.300Z,92897.98
2019-03-25T02:07:38.030Z,92855.92
2019-03-25T02:10:10.176Z,92902.14
2019-03-25T02:12:40.046Z,92848.75
2019-03-25T02:15:09.831Z,92843.41
2019-03-25T02:17:39.620Z,92844.58
2019-03-25T02:20:09.495Z,92897.16
2019-03-25T02:22:40.027Z,92809.09
2019-03-25T02:25:10.065Z,92898.82
2019-03-25T02:27:40.400Z,93010.00
2019-03-25T02:30:10.281Z,92976.70
2019-03-25T02:32:40.100Z,92904.14
2019-03-25T02:35:09.867Z,92863.89
2019-03-25T02:37:39.651Z,92822.77
2019-03-25T02:40:09.429Z,92905.73
2019-03-25T02:42:39.231Z,92896.41
2019-03-25T02:45:09.099Z,92881.74
2019-03-25T02:47:38.871Z,92910.73
2019-03-25T02:50:08.775Z,92898.94
2019-03-25T02:52:38.537Z,92875.11
2019-03-25T02:55:08.542Z,92963.63
2019-03-25T02:57:38.401Z,92999.09
2019-03-25T03:00:09.610Z,92947.61
2019-03-25T03:02:39.793Z,92937.06
2019-03-25T03:05:09.907Z,93026.87
2019-03-25T03:07:39.703Z,93034.41
2019-03-25T03:10:09.528Z,93021.96
2019-03-25T03:12:39.319Z,92997.27
2019-03-25T03:15:09.213Z,92982.62
2019-03-25T03:17:39.008Z,92981.51
2019-03-25T03:20:08.820Z,92985.35
2019-03-25T03:22:38.618Z,92974.05
2019-03-25T03:25:08.458Z,92989.81
2019-03-25T03:27:38.205Z,93000.30
2019-03-25T03:30:08.292Z,92996.58
2019-03-25T03:32:38.051Z,92968.20
2019-03-25T03:35:08.250Z,92989.73
2019-03-25T03:37:38.052Z,93039.69
2019-03-25T03:40:07.928Z,93042.63
2019-03-25T03:42:37.897Z,93079.16
2019-03-25T03:45:08.032Z,93049.11
2019-03-25T03:47:37.807Z,92921.08
2019-03-25T03:50:14.059Z,92832.78
2019-03-25T03:52:44.586Z,92815.57
2019-03-25T03:55:14.329Z,92800.90
2019-03-25T03:57:44.162Z,92846.67
2019-03-25T04:00:16.950Z,92913.06
2019-03-25T04:02:46.730Z,92928.78
2019-03-25T04:05:16.524Z,92894.00
2019-03-25T04:07:47.053Z,92895.53
2019-03-25T04:10:16.836Z,92783.22
2019-03-25T04:12:46.652Z,92728.80
2019-03-25T04:15:27.693Z,92676.62
2019-03-25T04:17:58.281Z,92627.20
2019-03-25T04:20:27.886Z,92613.98
2019-03-25T04:22:58.070Z,92598.41
2019-03-25T04:25:29.484Z,92617.08
2019-03-25T04:27:59.238Z,92549.50
2019-03-25T04:30:28.840Z,92519.27
2019-03-25T04:32:58.660Z,92507.41
2019-03-25T04:35:28.438Z,92537.92
2019-03-25T04:37:58.233Z,92540.86
2019-03-25T04:40:28.023Z,92498.05
2019-03-25T04:43:00.491Z,92470.56
2019-03-25T04:45:30.318Z,92511.63
2019-03-25T04:48:00.018Z,92493.84
2019-03-25T04:50:29.805Z,92512.80
2019-03-25T04:52:59.627Z,92538.63
2019-03-25T04:55:30.877Z,92598.76
2019-03-25T04:58:00.661Z,92616.56
2019-03-25T05:00:35.253Z,92647.81
2019-03-25T05:03:05.226Z,92655.86
2019-03-25T05:05:36.309Z,92687.76
2019-03-25T05:08:06.263Z,92705.56
2019-03-25T05:10:36.090Z,92727.94
2019-03-25T05:13:05.892Z,92736.13
2019-03-25T05:15:35.636Z,92789.92
2019-03-25T05:18:05.471Z,92759.06
2019-03-25T05:20:35.256Z,92801.41
2019-03-25T05:23:05.120Z,92751.55
2019-03-25T05:25:35.008Z,92717.73
2019-03-25T05:28:04.704Z,92705.48
2019-03-25T05:30:34.561Z,92721.64
2019-03-25T05:33:04.339Z,92905.52
2019-03-25T05:35:34.175Z,92861.56
2019-03-25T05:38:03.993Z,92806.48
2019-03-25T05:40:33.774Z,92785.53
2019-03-25T05:43:03.586Z,92845.21
2019-03-25T05:45:33.389Z,92881.56
2019-03-25T05:48:03.201Z,92820.54
2019-03-25T05:50:33.015Z,92852.02
2019-03-25T05:53:02.858Z,92875.26
2019-03-25T05:55:33.044Z,92977.36
2019-03-25T05:58:02.861Z,92979.77
2019-03-25T06:00:34.210Z,92864.92
2019-03-25T06:03:03.975Z,92922.42
2019-03-25T06:05:34.595Z,93017.30
2019-03-25T06:08:04.410Z,93102.22
2019-03-25T06:10:34.510Z,93166.75
2019-03-25T06:13:04.320Z,93236.44
2019-03-25T06:15:34.153Z,93258.97
2019-03-25T06:18:05.509Z,93446.56
2019-03-25T06:20:35.812Z,93734.43
2019-03-25T06:23:05.565Z,93813.66
2019-03-25T06:25:35.365Z,93826.80
2019-03-25T06:28:05.163Z,93858.48
2019-03-25T06:30:34.981Z,93852.08
2019-03-25T06:33:12.295Z,93844.57
2019-03-25T06:35:36.298Z,93856.05
2019-03-25T06:38:06.428Z,93845.27
2019-03-25T06:40:36.186Z,93848.86
2019-03-25T06:43:05.996Z,93836.54
2019-03-25T06:45:37.247Z,93827.77
2019-03-25T06:48:07.070Z,93813.95
2019-03-25T06:50:37.828Z,93811.28
2019-03-25T06:53:07.637Z,93816.21
2019-03-25T06:55:37.411Z,93827.08
2019-03-25T06:58:07.248Z,93834.04
2019-03-25T07:00:37.081Z,93839.97
2019-03-25T07:03:06.849Z,93834.60
2019-03-25T07:05:36.706Z,93832.64
2019-03-25T07:08:06.516Z,93819.16
2019-03-25T07:10:37.180Z,93822.27
2019-03-25T07:13:07.311Z,93783.95
2019-03-25T07:15:37.064Z,93736.30
2019-03-25T07:18:06.954Z,93688.50
2019-03-25T07:20:36.794Z,93691.27
2019-03-25T07:23:06.616Z,93704.13
2019-03-25T07:25:36.486Z,93706.90
2019-03-25T07:28:06.313Z,93734.92
2019-03-25T07:30:36.111Z,93732.74
2019-03-25T07:33:05.984Z,93715.47
2019-03-25T07:35:35.779Z,93733.50
2019-03-25T07:38:06.800Z,93775.66
2019-03-25T07:40:36.629Z,93785.69
2019-03-25T07:43:06.926Z,93776.86
2019-03-25T07:45:36.769Z,93765.29
2019-03-25T07:48:06.592Z,93736.04
2019-03-25T07:50:36.422Z,93731.43
2019-03-25T07:53:06.253Z,93725.68
2019-03-25T07:55:36.057Z,93713.24
2019-03-25T07:58:05.900Z,93669.19
2019-03-25T08:00:37.773Z,93552.59
2019-03-25T08:03:07.626Z,93494.45
2019-03-25T08:05:37.429Z,93478.97
2019-03-25T08:08:07.479Z,93391.86
2019-03-25T08:10:37.631Z,93313.95
2019-03-25T08:13:07.500Z,93326.81
2019-03-25T08:15:37.440Z,93276.95
2019-03-25T08:18:08.530Z,93232.96
2019-03-25T08:20:39.334Z,93176.20
2019-03-25T08:23:09.168Z,93234.11
2019-03-25T08:25:39.094Z,93193.67
2019-03-25T08:28:08.933Z,93161.31
2019-03-25T08:30:38.725Z,93047.14
2019-03-25T08:33:09.013Z,92867.05
2019-03-25T08:35:38.925Z,92654.19
2019-03-25T08:38:08.863Z,92487.78
2019-03-25T08:40:38.813Z,92334.77
2019-03-25T08:43:08.611Z,92279.86
2019-03-25T08:45:38.416Z,92334.50
2019-03-25T08:48:08.228Z,92349.61
2019-03-25T08:50:38.021Z,92213.58
2019-03-25T08:53:07.909Z,92028.11
2019-03-25T08:55:37.738Z,91979.44
2019-03-25T08:58:12.285Z,91989.84
2019-03-25T09:00:41.197Z,91983.11
2019-03-25T09:03:11.128Z,91799.78
2019-03-25T09:05:41.067Z,91781.13
2019-03-25T09:08:11.736Z,91670.52
2019-03-25T09:10:41.677Z,91662.46
2019-03-25T09:13:11.481Z,91590.92
2019-03-25T09:15:41.288Z,91373.69
2019-03-25T09:18:11.232Z,91316.23
2019-03-25T09:20:41.337Z,91215.62
2019-03-25T09:23:11.289Z,91188.70
2019-03-25T09:25:41.975Z,91269.97
2019-03-25T09:28:23.421Z,91325.94
2019-03-25T09:30:55.422Z,91499.76
2019-03-25T09:33:25.215Z,91471.50
2019-03-25T09:35:55.167Z,91563.05
2019-03-25T09:38:25.127Z,91270.89
2019-03-25T09:40:54.926Z,91102.25
2019-03-25T09:43:25.907Z,91115.93
2019-03-25T09:45:57.499Z,90971.17
2019-03-25T09:48:27.292Z,91172.88
2019-03-25T09:50:57.116Z,91171.20
2019-03-25T09:53:26.833Z,91170.06
2019-03-25T09:55:56.692Z,91006.44
2019-03-25T09:58:35.852Z,90709.04
2019-03-25T10:00:57.962Z,90473.30
2019-03-25T10:03:27.775Z,90719.77
2019-03-25T10:05:57.610Z,90517.00
2019-03-25T10:08:29.046Z,90411.08
2019-03-25T10:10:58.882Z,90297.94
2019-03-25T10:13:28.693Z,89917.83
2019-03-25T10:15:58.469Z,90153.58
2019-03-25T10:18:28.217Z,90042.48
2019-03-25T10:20:58.038Z,90431.22
2019-03-25T10:23:27.832Z,90755.55
2019-03-25T10:25:57.674Z,90891.29
2019-03-25T10:28:28.310Z,91181.97
2019-03-25T10:30:58.119Z,91141.86
2019-03-25T10:33:28.146Z,91294.26
2019-03-25T10:35:58.124Z,91106.09
2019-03-25T10:38:27.845Z,91177.16
2019-03-25T10:40:57.665Z,91040.27
2019-03-25T10:43:27.528Z,90968.28
2019-03-25T10:45:57.526Z,91114.76
2019-03-25T10:48:27.338Z,91512.34
2019-03-25T10:50:57.181Z,91503.28
2019-03-25T10:53:27.994Z,91708.64
2019-03-25T10:55:57.799Z,91842.04
2019-03-25T10:58:27.636Z,92086.23
2019-03-25T11:00:57.619Z,92288.27
2019-03-25T11:03:27.890Z,92407.31
2019-03-25T11:06:00.020Z,92605.28
2019-03-25T11:08:29.922Z,92682.86
2019-03-25T11:11:01.047Z,92757.63
2019-03-25T11:13:30.759Z,92802.03
2019-03-25T11:16:00.550Z,92916.55
2019-03-25T11:18:30.318Z,92958.02
2019-03-25T11:21:00.159Z,92977.27
2019-03-25T11:23:29.955Z,93051.65
2019-03-25T11:25:59.809Z,93154.63
2019-03-25T11:28:29.588Z,93150.05
2019-03-25T11:30:59.431Z,93187.13
2019-03-25T11:33:29.313Z,93258.67
2019-03-25T11:35:59.293Z,93290.14
2019-03-25T11:38:29.977Z,93259.78
2019-03-25T11:40:59.937Z,93256.23
2019-03-25T11:43:29.878Z,93277.09
2019-03-25T11:45:59.707Z,93276.69
2019-03-25T11:48:29.415Z,93252.98
2019-03-25T11:50:59.096Z,93246.03
2019-03-25T11:53:28.997Z,93192.91
2019-03-25T11:55:58.810Z,93097.84
2019-03-25T11:58:28.628Z,93094.39
2019-03-25T12:01:00.350Z,93089.47
2019-03-25T12:03:30.317Z,93086.32
2019-03-25T12:06:01.747Z,93061.30
2019-03-25T12:08:31.449Z,93089.81
2019-03-25T12:11:01.242Z,93110.64
2019-03-25T12:13:31.073Z,93104.61
2019-03-25T12:16:00.890Z,93152.47
2019-03-25T12:18:31.003Z,93120.30
2019-03-25T12:21:00.762Z,93058.41
2019-03-25T12:23:30.563Z,93045.78
2019-03-25T12:26:02.150Z,93052.25
2019-03-25T12:28:32.050Z,92993.61
2019-03-25T12:31:02.048Z,92980.74
2019-03-25T12:33:31.728Z,92994.95
2019-03-25T12:36:01.524Z,93019.66
2019-03-25T12:38:31.299Z,93081.31
2019-03-25T12:41:01.161Z,93138.15
2019-03-25T12:43:33.629Z,93159.84
2019-03-25T12:46:04.133Z,93191.09
2019-03-25T12:48:34.004Z,93214.28
2019-03-25T12:51:03.788Z,93239.92
2019-03-25T12:53:36.156Z,93249.41
2019-03-25T12:56:06.003Z,93268.93
2019-03-25T12:58:35.780Z,93280.63
2019-03-25T13:01:05.505Z,93333.44
2019-03-25T13:03:35.402Z,93407.70
2019-03-25T13:06:05.185Z,93397.22
2019-03-25T13:08:35.078Z,93358.12
2019-03-25T13:11:04.967Z,93313.79
2019-03-25T13:13:36.150Z,93263.44
2019-03-25T13:16:06.329Z,93167.70
2019-03-25T13:18:36.176Z,93117.64
2019-03-25T13:21:07.702Z,93111.92
2019-03-25T13:23:37.503Z,93125.57
2019-03-25T13:26:07.399Z,93169.39
2019-03-25T13:28:37.467Z,93197.80
2019-03-25T13:31:08.439Z,92958.77
2019-03-25T13:33:38.262Z,93107.09
2019-03-25T13:36:08.020Z,93119.65
2019-03-25T13:38:37.784Z,93086.34
2019-03-25T13:41:10.647Z,93116.31
2019-03-25T13:43:40.414Z,93203.39
2019-03-25T13:46:11.936Z,93251.70
2019-03-25T13:48:42.549Z,93284.27
2019-03-25T13:51:12.393Z,93309.55
2019-03-25T13:53:42.214Z,93295.47
2019-03-25T13:56:12.108Z,93303.56
2019-03-25T13:58:41.770Z,93321.92
2019-03-25T14:01:11.559Z,93301.27
2019-03-25T14:03:43.070Z,93287.72
2019-03-25T14:06:12.877Z,93274.46
2019-03-25T14:08:42.735Z,93264.81
2019-03-25T14:11:12.869Z,93260.81
2019-03-25T14:13:49.198Z,93291.88
2019-03-25T14:16:14.216Z,93294.83
2019-03-25T14:18:44.343Z,93275.62
2019-03-25T14:21:14.144Z,93210.67
2019-03-25T14:23:44.027Z,93208.95
2019-03-25T14:26:15.487Z,93191.14
2019-03-25T14:28:46.864Z,93212.97
2019-03-25T14:31:16.726Z,93216.61
2019-03-25T14:33:46.585Z,93129.20
2019-03-25T14:36:16.464Z,93111.78
2019-03-25T14:38:46.454Z,93131.39
2019-03-25T14:41:16.224Z,93097.33
2019-03-25T14:43:45.982Z,93055.83
2019-03-25T14:46:15.774Z,93049.09
2019-03-25T14:48:45.629Z,93021.25
2019-03-25T14:51:15.382Z,92992.84
2019-03-25T14:53:45.597Z,92973.02
2019-03-25T14:56:15.766Z,93011.69
2019-03-25T14:58:45.549Z,92961.13
2019-03-25T15:01:15.324Z,92865.45
2019-03-25T15:03:45.092Z,92823.19
2019-03-25T15:06:14.849Z,92790.92
2019-03-25T15:08:44.666Z,92758.29
2019-03-25T15:11:14.846Z,92702.80
2019-03-25T15:13:44.650Z,92606.49
2019-03-25T15:16:14.593Z,92582.17
2019-03-25T15:18:44.456Z,92560.85
2019-03-25T15:21:14.380Z,92545.46
2019-03-25T15:23:44.540Z,92547.91
2019-03-25T15:26:14.554Z,92503.48
2019-03-25T15:28:44.476Z,92417.70
2019-03-25T15:31:14.229Z,92438.03
2019-03-25T15:33:44.059Z,92434.93
2019-03-25T15:36:13.822Z,92427.87
2019-03-25T15:38:43.614Z,92394.08
2019-03-25T15:41:13.617Z,92447.67
2019-03-25T15:43:43.414Z,92412.72
2019-03-25T15:46:13.348Z,92393.22
2019-03-25T15:48:43.218Z,92491.60
2019-03-25T15:51:13.067Z,92471.82
2019-03-25T15:53:42.871Z,92449.18
2019-03-25T15:56:13.572Z,92496.48
2019-03-25T15:58:43.744Z,92497.14
2019-03-25T16:01:13.762Z,92427.57
2019-03-25T16:03:43.572Z,92469.52
2019-03-25T16:06:13.390Z,92452.02
2019-03-25T16:08:43.181Z,92459.52
2019-03-25T16:11:13.409Z,92489.30
2019-03-25T16:13:43.259Z,92479.39
2019-03-25T16:16:13.082Z,92491.53
2019-03-25T16:18:42.964Z,92504.91
2019-03-25T16:21:12.935Z,92508.68
2019-03-25T16:23:42.845Z,92485.80
2019-03-25T16:26:12.750Z,92543.04
2019-03-25T16:28:42.605Z,92534.21
2019-03-25T16:31:13.726Z,92420.03
2019-03-25T16:33:44.096Z,92370.67
2019-03-25T16:36:14.104Z,92385.10
2019-03-25T16:38:44.088Z,92331.26
2019-03-25T16:41:13.906Z,92284.24
2019-03-25T16:43:43.776Z,92292.12
2019-03-25T16:46:14.236Z,92350.14
2019-03-25T16:48:43.962Z,92386.39
2019-03-25T16:51:13.865Z,92337.16
2019-03-25T16:53:44.082Z,92343.45
2019-03-25T16:56:15.804Z,92376.52
2019-03-25T16:58:45.594Z,92339.84
2019-03-25T17:01:15.396Z,92320.33
2019-03-25T17:03:45.394Z,92475.66
2019-03-25T17:06:15.502Z,92588.33
2019-03-25T17:08:45.314Z,92555.41
2019-03-25T17:11:15.173Z,92519.09
2019-03-25T17:13:47.966Z,92503.95
2019-03-25T17:16:17.808Z,92576.56
2019-03-25T17:18:47.721Z,92628.37
2019-03-25T17:21:17.517Z,92570.37
2019-03-25T17:23:48.501Z,92627.66
2019-03-25T17:26:18.963Z,92747.19
2019-03-25T17:28:49.389Z,92696.91
2019-03-25T17:31:21.266Z,92675.19
2019-03-25T17:33:50.657Z,92665.20
2019-03-25T17:36:20.426Z,92743.56
2019-03-25T17:38:50.245Z,92724.05
2019-03-25T17:41:20.034Z,92668.28
2019-03-25T17:43:49.935Z,92676.86
2019-03-25T17:46:19.729Z,92533.31
2019-03-25T17:48:51.476Z,92559.70
2019-03-25T17:51:21.316Z,92603.56
2019-03-25T17:53:51.271Z,92576.16
2019-03-25T17:56:22.514Z,92550.71
2019-03-25T17:58:54.014Z,92506.16
2019-03-25T18:01:32.140Z,92503.66
2019-03-25T18:03:57.740Z,92457.84
2019-03-25T18:06:27.633Z,92377.36
2019-03-25T18:08:58.302Z,92282.24
2019-03-25T18:11:28.293Z,92254.71
2019-03-25T18:13:58.338Z,92253.27
2019-03-25T18:16:29.627Z,92211.32
2019-03-25T18:18:59.535Z,92223.03
2019-03-25T18:21:29.474Z,92199.02
2019-03-25T18:23:59.424Z,92188.09
2019-03-25T18:26:29.400Z,92226.67
2019-03-25T18:28:59.262Z,92168.98
2019-03-25T18:31:29.064Z,92022.20
2019-03-25T18:33:59.108Z,92036.19
2019-03-25T18:36:30.178Z,91955.50
2019-03-25T18:39:00.073Z,91980.91
2019-03-25T18:41:30.362Z,92019.08
2019-03-25T18:44:01.456Z,92032.59
2019-03-25T18:46:33.320Z,92016.37
2019-03-25T18:49:02.902Z,92057.70
2019-03-25T18:51:32.760Z,92051.10
2019-03-25T18:54:02.625Z,91963.36
2019-03-25T18:56:32.809Z,92020.34
2019-03-25T18:59:03.877Z,92050.47
2019-03-25T19:01:33.716Z,92020.61
2019-03-25T19:04:03.726Z,92103.31
2019-03-25T19:06:33.794Z,91993.27
2019-03-25T19:09:04.477Z,91946.96
2019-03-25T19:11:34.667Z,92000.10
2019-03-25T19:14:05.248Z,91913.39
2019-03-25T19:16:36.685Z,91685.24
2019-03-25T19:19:07.639Z,91817.98
2019-03-25T19:21:37.378Z,92090.11
2019-03-25T19:24:07.507Z,92094.50
2019-03-25T19:26:37.389Z,92120.26
2019-03-25T19:29:07.235Z,92201.91
2019-03-25T19:31:37.057Z,92060.33
2019-03-25T19:34:06.943Z,92116.78
2019-03-25T19:36:36.771Z,91866.52
2019-03-25T19:39:07.352Z,91926.06
2019-03-25T19:41:38.285Z,91900.02
2019-03-25T19:44:08.181Z,91787.16
2019-03-25T19:46:39.165Z,91690.95
2019-03-25T19:49:10.608Z,91840.21
2019-03-25T19:51:42.017Z,91703.56
2019-03-25T19:54:12.249Z,91814.92
2019-03-25T19:56:42.129Z,91706.34
2019-03-25T19:59:11.964Z,91680.71
2019-03-25T20:01:41.792Z,91563.16
2019-03-25T20:04:16.677Z,91621.31
2019-03-25T20:06:46.536Z,91650.38
2019-03-25T20:09:16.400Z,91720.89
2019-03-25T20:11:46.260Z,91819.28
2019-03-25T20:14:18.123Z,91722.38
2019-03-25T20:16:48.302Z,91735.27
2019-03-25T20:19:18.054Z,91565.95
2019-03-25T20:21:47.928Z,91565.04
2019-03-25T20:24:20.568Z,91624.17
2019-03-25T20:26:50.402Z,91489.91
2019-03-25T20:29:20.615Z,91504.23
2019-03-25T20:31:50.847Z,91287.48
2019-03-25T20:34:20.774Z,91381.27
2019-03-25T20:36:52.412Z,91344.84
2019-03-25T20:39:22.390Z,91472.03
2019-03-25T20:41:52.281Z,91421.95
2019-03-25T20:44:22.165Z,91172.33
2019-03-25T20:46:52.068Z,91340.27
2019-03-25T20:49:22.272Z,91378.34
2019-03-25T20:51:52.255Z,91421.20
2019-03-25T20:54:22.186Z,91357.84
2019-03-25T20:56:52.049Z,91360.27
2019-03-25T20:59:21.822Z,91394.58
2019-03-25T21:01:51.743Z,91192.77
2019-03-25T21:04:21.586Z,91268.51
2019-03-25T21:06:54.473Z,91154.83
2019-03-25T21:09:23.028Z,91285.58
2019-03-25T21:11:52.835Z,91270.08
2019-03-25T21:14:22.690Z,91141.20
2019-03-25T21:16:52.529Z,91283.23
2019-03-25T21:19:23.250Z,91293.59
2019-03-25T21:21:53.166Z,91166.30
2019-03-25T21:24:23.175Z,91083.91
2019-03-25T21:26:53.717Z,91217.95
2019-03-25T21:29:24.036Z,91255.56
2019-03-25T21:31:54.066Z,91098.53
2019-03-25T21:34:24.031Z,90933.41
2019-03-25T21:36:53.865Z,90940.11
2019-03-25T21:39:23.737Z,91090.59
2019-03-25T21:41:53.621Z,90955.73
2019-03-25T21:44:23.403Z,91055.78
2019-03-25T21:46:53.314Z,91042.85
2019-03-25T21:49:23.261Z,90972.62
2019-03-25T21:51:53.050Z,90974.72
2019-03-25T21:54:24.894Z,90887.20
2019-03-25T21:56:55.125Z,90909.80
2019-03-25T21:59:25.352Z,90934.20
2019-03-25T22:01:55.207Z,90848.68
2019-03-25T22:04:24.929Z,90915.44
2019-03-25T22:06:54.727Z,90919.80
2019-03-25T22:09:24.551Z,90946.00
2019-03-25T22:11:54.397Z,90834.33
2019-03-25T22:14:25.754Z,90764.48
2019-03-25T22:16:55.595Z,90743.42
2019-03-25T22:19:25.887Z,90521.92
2019-03-25T22:21:55.664Z,90570.55
2019-03-25T22:24:25.491Z,90674.38
2019-03-25T22:26:55.293Z,90710.90
2019-03-25T22:29:25.104Z,90533.41
2019-03-25T22:31:54.983Z,90420.53
2019-03-25T22:34:24.774Z,90462.92
2019-03-25T22:36:54.529Z,90504.42
2019-03-25T22:39:24.305Z,90165.51
2019-03-25T22:41:54.073Z,90245.09
2019-03-25T22:44:23.859Z,90155.50
2019-03-25T22:46:53.618Z,90244.11
2019-03-25T22:49:23.421Z,90223.40
2019-03-25T22:51:53.233Z,90180.98
2019-03-25T22:54:22.975Z,90168.99
2019-03-25T22:56:52.759Z,90069.28
2019-03-25T22:59:22.594Z,89766.72
2019-03-25T23:01:52.349Z,89674.79
2019-03-25T23:04:22.167Z,89752.80
2019-03-25T23:06:51.878Z,89659.80
2019-03-25T23:09:21.722Z,89865.83
2019-03-25T23:11:51.601Z,89900.70
2019-03-25T23:14:21.358Z,89706.14
2019-03-25T23:16:51.113Z,89572.11
2019-03-25T23:19:20.771Z,89542.11
2019-03-25T23:21:50.492Z,89440.52
2019-03-25T23:24:20.194Z,89498.27
2019-03-25T23:26:49.886Z,89443.77
2019-03-25T23:29:19.556Z,89576.93
2019-03-25T23:31:49.905Z,89313.06
2019-03-25T23:34:20.064Z,89399.64
2019-03-25T23:36:49.867Z,89394.80
2019-03-25T23:39:19.548Z,89300.83
2019-03-25T23:41:49.297Z,89332.67
2019-03-25T23:44:19.110Z,89136.77
2019-03-25T23:46:48.871Z,89291.81
2019-03-25T23:49:18.575Z,89262.28
2019-03-25T23:51:51.340Z,89290.63
2019-03-25T23:54:21.122Z,89266.39
2019-03-25T23:56:50.899Z,89305.75
2019-03-25T23:59:20.621Z,89241.39
